Time;durP1;ratioP1;P1;durP2;ratioP2;P2;SDS_P1;SDS_P2;PMS_P1;PMS_P2;Temp;Humidity;BMP_temperature;BMP_pressure;BME280_temperature;BME280_humidity;BME280_pressure;Samples;Min_cycle;Max_cycle;Signal;HPM_P1;HPM_P2
2023/03/28 00:00:43;;;;;;;0.98;0.98;;;;;;;8.81;100.00;98665.53;5058962;28;20195;-73
2023/03/28 00:03:13;;;;;;;0.80;0.80;;;;;;;8.62;100.00;98657.81;5094732;28;20240;-73
2023/03/28 00:05:40;;;;;;;0.77;0.77;;;;;;;8.65;100.00;98669.00;5042082;28;20190;-73
2023/03/28 00:08:08;;;;;;;0.70;0.70;;;;;;;8.61;100.00;98672.44;5094652;28;20237;-73
2023/03/28 00:10:34;;;;;;;1.05;1.05;;;;;;;8.54;100.00;98654.38;5094247;28;20230;-74
2023/03/28 00:13:01;;;;;;;0.80;0.80;;;;;;;8.64;100.00;98674.16;5094606;28;20201;-73
2023/03/28 00:15:28;;;;;;;0.70;0.70;;;;;;;8.50;100.00;98673.31;5094365;28;20194;-73
2023/03/28 00:18:00;;;;;;;0.90;0.90;;;;;;;8.35;100.00;98658.66;5093931;28;20304;-74
2023/03/28 00:20:28;;;;;;;0.90;0.90;;;;;;;8.53;100.00;98678.47;5093715;28;20715;-73
2023/03/28 00:22:55;;;;;;;0.80;0.80;;;;;;;8.16;100.00;98683.56;5093546;28;20257;-73
2023/03/28 00:25:22;;;;;;;0.80;0.80;;;;;;;8.18;100.00;98666.34;5093158;28;20630;-73
2023/03/28 00:27:49;;;;;;;1.00;1.00;;;;;;;8.03;100.00;98676.66;5094076;28;20202;-73
2023/03/28 00:30:16;;;;;;;0.80;0.80;;;;;;;7.84;100.00;98662.00;5093382;28;20240;-74
2023/03/28 00:32:42;;;;;;;0.87;0.87;;;;;;;7.90;100.00;98674.91;5093610;28;20194;-73
2023/03/28 00:35:09;;;;;;;0.77;0.77;;;;;;;7.75;100.00;98638.72;5093040;28;20209;-72
2023/03/28 00:37:40;;;;;;;1.10;1.10;;;;;;;7.71;100.00;98657.63;5040641;28;20194;-73
2023/03/28 00:40:08;;;;;;;0.90;0.90;;;;;;;7.71;100.00;98667.94;5087061;28;20631;-74
2023/03/28 00:42:41;;;;;;;0.80;0.80;;;;;;;7.52;100.00;98612.03;5094046;28;20233;-72
2023/03/28 00:45:10;;;;;;;0.97;0.97;;;;;;;7.51;100.00;98685.06;5092653;28;20585;-73
2023/03/28 00:47:42;;;;;;;5.57;1.87;;;;;;;7.41;100.00;98643.78;5093712;28;20267;-73
2023/03/28 00:50:15;;;;;;;0.80;0.80;;;;;;;7.48;100.00;98680.75;5092754;28;20248;-74
2023/03/28 00:52:48;;;;;;;0.90;0.90;;;;;;;7.42;100.00;98686.72;5093556;28;20623;-74
2023/03/28 00:55:19;;;;;;;0.83;0.83;;;;;;;7.16;100.00;98667.72;5093435;28;20209;-72
2023/03/28 00:57:47;;;;;;;0.90;0.90;;;;;;;7.29;100.00;98684.09;5093620;28;20194;-72
2023/03/28 01:00:17;;;;;;;0.80;0.80;;;;;;;7.31;100.00;98679.81;5092524;28;20225;-72
2023/03/28 01:02:49;;;;;;;0.70;0.70;;;;;;;7.22;100.00;98678.03;5092626;28;20218;-72
2023/03/28 01:05:17;;;;;;;1.00;1.00;;;;;;;7.20;100.00;98710.69;5059145;28;20595;-73
2023/03/28 01:07:51;;;;;;;0.80;0.80;;;;;;;7.17;100.00;98708.06;5092233;28;20213;-74
2023/03/28 01:10:20;;;;;;;0.90;0.90;;;;;;;7.05;100.00;98689.97;5008742;28;20284;-73
2023/03/28 01:12:48;;;;;;;0.80;0.80;;;;;;;7.13;100.00;98706.34;5092775;28;20654;-72
2023/03/28 01:15:15;;;;;;;0.73;0.73;;;;;;;6.87;100.00;98695.00;5037937;28;20198;-74
2023/03/28 01:17:45;;;;;;;0.80;0.80;;;;;;;7.02;100.00;98709.72;5073416;28;20202;-73
2023/03/28 01:20:31;;;;;;;0.90;0.90;;;;;;;7.04;100.00;98702.84;5085028;28;20252;-74
2023/03/28 01:23:39;;;;;;;0.90;0.90;;;;;;;7.02;100.00;98713.16;5092962;28;20681;-73
2023/03/28 01:26:40;;;;;;;0.93;0.93;;;;;;;6.84;100.00;98694.97;5079034;28;20198;-72
2023/03/28 01:30:00;;;;;;;1.00;1.00;;;;;;;6.94;100.00;98728.56;5093188;28;20277;-72
2023/03/28 01:33:06;;;;;;;1.50;1.40;;;;;;;6.89;100.00;98744.81;5093070;28;20327;-73
2023/03/28 01:35:56;;;;;;;0.90;0.90;;;;;;;6.83;100.00;98729.31;5010424;28;20251;-73
2023/03/28 01:38:34;;;;;;;0.90;0.90;;;;;;;6.91;100.00;98738.84;4959209;28;20286;-73
2023/03/28 01:41:06;;;;;;;0.70;0.70;;;;;;;6.86;100.00;98735.34;5008855;28;20332;-74
2023/03/28 01:43:42;;;;;;;0.90;0.90;;;;;;;6.78;100.00;98737.00;5011306;28;20242;-72
2023/03/28 01:46:17;;;;;;;1.00;1.00;;;;;;;6.87;100.00;98746.53;5009919;28;20205;-74
2023/03/28 01:48:57;;;;;;;0.70;0.70;;;;;;;6.98;100.00;98775.81;5010629;28;20253;-72
2023/03/28 01:51:33;;;;;;;0.80;0.80;;;;;;;6.89;100.00;98744.81;5010487;28;20605;-73
2023/03/28 01:54:09;;;;;;;1.00;1.00;;;;;;;6.86;100.00;98765.38;5010826;28;20204;-73
2023/03/28 01:56:39;;;;;;;1.00;1.00;;;;;;;6.80;100.00;98775.66;5010361;28;20287;-73
2023/03/28 01:59:13;;;;;;;0.70;0.70;;;;;;;6.89;100.00;98766.28;5010186;28;20228;-73
2023/03/28 02:01:48;;;;;;;0.90;0.90;;;;;;;6.90;100.00;98772.31;5009884;28;20290;-73
2023/03/28 02:04:19;;;;;;;0.80;0.80;;;;;;;6.76;100.00;98758.44;5009624;28;20211;-74
2023/03/28 02:06:48;;;;;;;0.90;0.90;;;;;;;6.75;100.00;98761.84;5009868;28;20721;-73
2023/03/28 02:09:20;;;;;;;0.90;0.90;;;;;;;6.67;100.00;98784.13;5009959;28;20676;-73
2023/03/28 02:11:51;;;;;;;0.80;0.80;;;;;;;6.74;100.00;98794.47;5024585;28;20206;-73
2023/03/28 02:14:22;;;;;;;0.80;0.80;;;;;;;6.65;100.00;98775.50;5051888;28;20207;-72
2023/03/28 02:16:53;;;;;;;1.00;1.00;;;;;;;6.73;100.00;98791.91;5051302;28;20647;-72
2023/03/28 02:19:24;;;;;;;0.80;0.80;;;;;;;6.75;100.00;98797.91;5017778;28;20276;-73
2023/03/28 02:21:53;;;;;;;0.83;0.83;;;;;;;6.74;100.00;98806.50;5050773;28;20592;-73
2023/03/28 02:24:22;;;;;;;0.97;0.97;;;;;;;6.61;100.00;98805.50;5050759;28;20210;-73
2023/03/28 02:26:48;;;;;;;0.80;0.80;;;;;;;6.44;100.00;98810.50;5051638;28;20196;-72
2023/03/28 02:29:16;;;;;;;3.43;3.13;;;;;;;6.39;100.00;98795.84;5051849;28;20207;-73
2023/03/28 02:31:43;;;;;;;0.90;0.90;;;;;;;6.59;100.00;98821.81;5035128;28;20199;-74
2023/03/28 02:34:10;;;;;;;0.90;0.90;;;;;;;6.31;100.00;98795.75;5051326;28;20199;-74
2023/03/28 02:36:48;;;;;;;2.50;2.40;;;;;;;6.52;100.00;98825.16;5050694;28;20215;-74
2023/03/28 02:39:40;;;;;;;0.80;0.80;;;;;;;6.37;100.00;98802.69;5050507;28;20202;-74
2023/03/28 02:42:32;;;;;;;1.20;1.20;;;;;;;6.18;100.00;98763.00;5050678;28;20227;-74
2023/03/28 02:45:16;;;;;;;0.80;0.80;;;;;;;6.42;100.00;98825.03;5051063;28;20195;-73
2023/03/28 02:47:50;;;;;;;0.80;0.80;;;;;;;6.42;100.00;98827.63;5051190;28;20199;-74
2023/03/28 02:50:26;;;;;;;0.90;0.90;;;;;;;6.27;100.00;98821.44;5050600;28;20201;-73
2023/03/28 02:52:58;;;;;;;0.90;0.90;;;;;;;6.38;100.00;98833.59;5050798;28;20656;-72
2023/03/28 02:55:33;;;;;;;1.00;1.00;;;;;;;6.45;100.00;98834.53;5049828;28;20268;-74
2023/03/28 02:58:06;;;;;;;1.03;1.03;;;;;;;6.40;100.00;98844.78;5050675;28;20665;-72
2023/03/28 03:00:35;;;;;;;0.70;0.70;;;;;;;6.29;100.00;98850.63;5090549;28;20217;-73
2023/03/28 03:03:02;;;;;;;0.90;0.90;;;;;;;6.24;100.00;98840.28;5089866;28;20270;-73
2023/03/28 03:05:30;;;;;;;0.80;0.80;;;;;;;6.18;100.00;98819.63;5091006;28;20303;-73
2023/03/28 03:07:56;;;;;;;4.53;2.47;;;;;;;6.11;100.00;98838.41;5090592;28;20209;-73
2023/03/28 03:10:23;;;;;;;0.90;0.90;;;;;;;6.15;100.00;98844.44;5090808;28;20202;-72
2023/03/28 03:12:51;;;;;;;0.80;0.80;;;;;;;6.36;100.00;98863.59;5090864;28;20213;-73
2023/03/28 03:15:18;;;;;;;0.90;0.90;;;;;;;6.23;100.00;98845.41;5090866;28;20202;-73
2023/03/28 03:17:46;;;;;;;0.70;0.70;;;;;;;6.15;100.00;98845.31;5090782;28;20201;-72
2023/03/28 03:20:13;;;;;;;0.80;0.80;;;;;;;6.14;100.00;98859.03;5090626;28;20202;-74
2023/03/28 03:22:40;;;;;;;0.70;0.70;;;;;;;5.97;100.00;98848.53;5090830;28;20731;-74
2023/03/28 03:25:08;;;;;;;0.80;0.80;;;;;;;6.06;100.00;98846.91;5090270;28;20206;-73
2023/03/28 03:27:38;;;;;;;0.80;0.80;;;;;;;6.39;100.00;98881.66;5055368;28;20202;-74
2023/03/28 03:30:08;;;;;;;1.03;1.03;;;;;;;6.23;100.00;98904.59;5090835;28;20194;-73
2023/03/28 03:32:35;;;;;;;0.90;0.90;;;;;;;6.11;100.00;98855.53;5090755;28;20202;-73
2023/03/28 03:35:02;;;;;;;1.13;1.13;;;;;;;6.07;100.00;98862.34;5090871;28;20645;-73
2023/03/28 03:37:29;;;;;;;0.80;0.80;;;;;;;6.04;100.00;98870.03;5090674;28;20201;-72
2023/03/28 03:39:56;;;;;;;0.90;0.90;;;;;;;5.77;100.00;98810.50;5090751;28;20208;-74
2023/03/28 03:42:22;;;;;;;0.97;0.97;;;;;;;6.32;100.00;98887.56;5090654;28;20218;-72
2023/03/28 03:44:49;;;;;;;0.80;0.80;;;;;;;6.18;100.00;98883.94;5090912;28;20201;-73
2023/03/28 03:47:18;;;;;;;1.43;1.43;;;;;;;6.16;100.00;98915.66;5090132;28;20221;-71
2023/03/28 03:49:45;;;;;;;0.80;0.80;;;;;;;6.17;100.00;98909.69;5090335;28;20202;-72
2023/03/28 03:52:12;;;;;;;0.70;0.70;;;;;;;6.09;100.00;98900.97;5090392;28;20552;-73
2023/03/28 03:54:39;;;;;;;0.70;0.70;;;;;;;6.01;100.00;98893.16;5090210;28;20660;-73
2023/03/28 03:57:06;;;;;;;0.90;0.90;;;;;;;6.15;100.00;98921.66;5090263;28;20208;-72
2023/03/28 03:59:33;;;;;;;0.90;0.90;;;;;;;6.15;100.00;98917.38;5090801;28;20316;-72
2023/03/28 04:02:00;;;;;;;0.90;0.90;;;;;;;6.26;100.00;98932.94;5090373;28;20205;-73
2023/03/28 04:04:29;;;;;;;0.90;0.90;;;;;;;6.06;100.00;98904.38;5054518;28;20235;-73
2023/03/28 04:06:57;;;;;;;0.90;0.90;;;;;;;6.20;100.00;98938.03;5090454;28;20202;-72
2023/03/28 04:09:26;;;;;;;1.00;1.00;;;;;;;6.13;100.00;98943.94;5090328;28;20203;-73
2023/03/28 04:11:53;;;;;;;0.97;0.97;;;;;;;5.97;100.00;98938.56;5090092;28;20634;-73
2023/03/28 04:14:19;;;;;;;0.80;0.80;;;;;;;5.47;100.00;98852.03;5054202;28;20209;-72
2023/03/28 04:16:49;;;;;;;0.80;0.80;;;;;;;5.89;100.00;98959.84;5089383;28;20686;-73
2023/03/28 04:19:16;;;;;;;1.00;1.00;;;;;;;5.87;100.00;98958.97;5090629;28;20290;-74
2023/03/28 04:21:47;;;;;;;0.90;0.90;;;;;;;6.06;100.00;98953.28;5080252;28;20222;-73
2023/03/28 04:24:14;;;;;;;0.90;0.90;;;;;;;5.77;100.00;98923.66;5074389;28;20230;-73
2023/03/28 04:26:41;;;;;;;0.70;0.70;;;;;;;5.88;100.00;98958.13;5094292;28;20297;-72
2023/03/28 04:29:09;;;;;;;0.90;0.90;;;;;;;5.70;100.00;98950.09;5093681;28;20206;-74
2023/03/28 04:31:38;;;;;;;1.03;1.03;;;;;;;5.86;100.00;98976.09;5093858;28;20196;-74
2023/03/28 04:34:06;;;;;;;2.33;2.20;;;;;;;5.80;100.00;98965.69;5041410;28;20716;-74
2023/03/28 04:36:33;;;;;;;1.00;1.00;;;;;;;5.20;100.00;98885.88;5093329;28;20202;-73
2023/03/28 04:39:02;;;;;;;0.93;0.93;;;;;;;5.91;100.00;98983.91;5093710;28;20198;-71
2023/03/28 04:41:30;;;;;;;1.10;1.10;;;;;;;5.67;100.00;98965.47;5092987;28;20191;-73
2023/03/28 04:43:57;;;;;;;1.00;1.00;;;;;;;5.79;100.00;98984.53;5079857;28;20226;-74
2023/03/28 04:46:24;;;;;;;1.10;1.10;;;;;;;5.69;100.00;98976.66;5084170;28;20197;-74
2023/03/28 04:48:51;;;;;;;1.03;1.03;;;;;;;5.83;100.00;99006.91;5083438;28;20229;-74
2023/03/28 04:51:18;;;;;;;0.97;0.97;;;;;;;5.70;100.00;99016.97;5090018;28;20209;-74
2023/03/28 04:53:45;;;;;;;1.20;1.20;;;;;;;5.68;100.00;98998.03;5079256;28;20588;-71
2023/03/28 04:56:13;;;;;;;1.03;1.03;;;;;;;5.84;100.00;99010.34;5093612;28;20202;-74
2023/03/28 04:58:40;;;;;;;0.90;0.90;;;;;;;5.78;100.00;99054.81;5092993;28;20221;-74
2023/03/28 05:01:10;;;;;;;1.10;1.10;;;;;;;5.77;100.00;99052.22;5057527;28;20234;-74
2023/03/28 05:03:38;;;;;;;5.20;2.53;;;;;;;6.01;100.00;99064.66;5093383;28;20230;-74
2023/03/28 05:06:06;;;;;;;1.10;1.10;;;;;;;5.97;100.00;99035.44;5053951;28;20207;-74
2023/03/28 05:08:33;;;;;;;0.90;0.90;;;;;;;6.03;100.00;99066.41;5084710;28;20313;-74
2023/03/28 05:11:00;;;;;;;0.80;0.80;;;;;;;5.80;100.00;99058.28;5092887;28;20198;-73
2023/03/28 05:13:28;;;;;;;0.90;0.90;;;;;;;5.85;100.00;99073.81;5093351;28;20210;-74
2023/03/28 05:15:55;;;;;;;0.90;0.90;;;;;;;5.91;99.60;99071.34;5092805;28;20190;-75
2023/03/28 05:18:21;;;;;;;1.10;1.10;;;;;;;6.01;100.00;99070.66;5085237;28;20195;-74
2023/03/28 05:20:48;;;;;;;0.93;0.93;;;;;;;5.93;98.71;99085.09;5086944;28;20728;-74
2023/03/28 05:23:15;;;;;;;0.80;0.80;;;;;;;5.98;99.67;99076.63;5078553;28;20572;-75
2023/03/28 05:25:42;;;;;;;0.90;0.90;;;;;;;5.98;98.05;99078.34;5093188;28;20284;-74
2023/03/28 05:28:09;;;;;;;0.97;0.97;;;;;;;6.06;98.34;99084.50;5091768;28;20688;-74
2023/03/28 05:30:37;;;;;;;1.10;1.10;;;;;;;6.17;97.24;99061.50;5092630;28;20623;-74
2023/03/28 05:33:04;;;;;;;0.90;0.90;;;;;;;6.03;96.57;99075.84;5092318;28;20232;-74
2023/03/28 05:35:30;;;;;;;1.00;1.00;;;;;;;6.15;95.88;99081.19;5092618;28;20622;-74
2023/03/28 05:37:57;;;;;;;1.40;1.40;;;;;;;6.24;95.27;99105.34;5092978;28;20210;-74
2023/03/28 05:40:24;;;;;;;0.80;0.80;;;;;;;6.24;94.02;99109.66;5053351;28;20215;-73
2023/03/28 05:42:51;;;;;;;1.07;1.07;;;;;;;6.28;92.88;99109.72;5083697;28;20300;-74
2023/03/28 05:45:18;;;;;;;1.00;1.00;;;;;;;6.56;92.26;99125.63;5092072;28;20238;-74
2023/03/28 05:47:46;;;;;;;0.77;0.77;;;;;;;6.47;90.44;99111.75;5092310;28;20202;-74
2023/03/28 05:50:13;;;;;;;1.00;1.00;;;;;;;6.72;89.50;99127.56;5091852;28;20212;-73
2023/03/28 05:52:39;;;;;;;1.20;1.20;;;;;;;6.69;88.04;99132.66;5089634;28;20697;-73
2023/03/28 05:55:07;;;;;;;1.00;1.00;;;;;;;6.74;89.79;99120.75;5090691;28;20652;-73
2023/03/28 05:57:34;;;;;;;0.90;0.90;;;;;;;6.64;88.07;99116.25;5079818;28;20198;-74
2023/03/28 06:00:02;;;;;;;1.00;1.00;;;;;;;6.48;88.32;99077.44;5092122;28;20234;-76
2023/03/28 06:02:29;;;;;;;1.00;1.00;;;;;;;6.55;88.58;99131.59;5077971;28;20645;-74
2023/03/28 06:04:58;;;;;;;0.80;0.80;;;;;;;6.67;87.48;99124.91;5092197;28;20233;-74
2023/03/28 06:07:25;;;;;;;0.80;0.80;;;;;;;6.66;88.25;99132.63;5052047;28;20202;-74
2023/03/28 06:09:52;;;;;;;0.70;0.70;;;;;;;6.57;87.56;99128.19;5082612;28;20210;-71
2023/03/28 06:12:19;;;;;;;0.80;0.80;;;;;;;6.79;87.04;99139.69;5052977;28;20203;-73
2023/03/28 06:14:46;;;;;;;1.00;1.00;;;;;;;6.65;86.77;99142.06;5071595;28;20199;-74
2023/03/28 06:17:13;;;;;;;0.90;0.90;;;;;;;6.76;85.40;99173.13;5086680;28;20194;-73
2023/03/28 06:19:40;;;;;;;1.67;1.57;;;;;;;6.73;85.92;99163.66;5091849;28;20194;-73
2023/03/28 06:22:08;;;;;;;0.90;0.90;;;;;;;6.87;84.82;99166.44;5091684;28;20229;-72
2023/03/28 06:24:34;;;;;;;0.70;0.70;;;;;;;7.00;83.40;99183.78;5085381;28;20591;-74
2023/03/28 06:27:01;;;;;;;0.73;0.73;;;;;;;6.51;83.54;99080.88;5083428;28;20202;-74
2023/03/28 06:29:28;;;;;;;5.00;1.67;;;;;;;6.78;83.94;99167.16;5077229;28;20305;-74
2023/03/28 06:31:55;;;;;;;0.90;0.90;;;;;;;7.09;83.20;99183.94;5091460;28;20205;-74
2023/03/28 06:34:22;;;;;;;0.73;0.73;;;;;;;6.59;82.14;99148.81;5091263;28;20202;-75
2023/03/28 06:36:49;;;;;;;1.10;1.10;;;;;;;6.79;87.33;99165.44;5091430;28;20224;-75
2023/03/28 06:39:17;;;;;;;0.80;0.80;;;;;;;6.83;83.51;99173.25;5090687;28;20213;-74
2023/03/28 06:41:44;;;;;;;1.00;1.00;;;;;;;6.76;83.54;99173.13;5071075;28;20626;-75
2023/03/28 06:44:11;;;;;;;0.80;0.80;;;;;;;6.79;81.79;99197.22;5083327;28;20334;-73
2023/03/28 06:46:37;;;;;;;0.90;0.90;;;;;;;6.71;81.88;99195.34;5091000;28;20217;-74
2023/03/28 06:49:05;;;;;;;0.97;0.97;;;;;;;6.77;82.95;99204.09;5091276;28;20578;-74
2023/03/28 06:51:32;;;;;;;0.90;0.90;;;;;;;6.62;82.48;99208.09;5076865;28;20255;-73
2023/03/28 06:53:59;;;;;;;1.00;1.00;;;;;;;6.96;82.40;99216.38;5076969;28;20209;-73
2023/03/28 06:56:27;;;;;;;0.83;0.83;;;;;;;6.91;83.21;99178.53;5090946;28;20645;-74
2023/03/28 06:58:54;;;;;;;8.63;1.77;;;;;;;6.67;83.79;99191.03;5090973;28;20233;-74
2023/03/28 07:01:21;;;;;;;1.00;1.00;;;;;;;6.63;84.34;99168.63;5080246;28;20206;-73
2023/03/28 07:03:47;;;;;;;0.90;0.90;;;;;;;6.82;84.82;99201.56;5087525;28;20624;-75
2023/03/28 07:06:14;;;;;;;1.90;1.40;;;;;;;6.69;84.44;99226.25;5081691;28;20199;-74
2023/03/28 07:08:41;;;;;;;1.10;1.10;;;;;;;6.49;85.04;99199.31;5085870;28;20272;-75
2023/03/28 07:11:08;;;;;;;1.30;1.30;;;;;;;6.53;85.02;99192.50;5090706;28;20205;-74
2023/03/28 07:13:36;;;;;;;1.17;1.17;;;;;;;6.63;84.70;99215.00;5077264;28;20206;-73
2023/03/28 07:16:05;;;;;;;0.80;0.80;;;;;;;6.68;84.92;99215.91;5076315;28;20661;-73
2023/03/28 07:18:33;;;;;;;2.40;2.20;;;;;;;6.76;84.63;99230.66;5090752;28;20198;-73
2023/03/28 07:21:04;;;;;;;0.80;0.80;;;;;;;6.74;83.27;99223.78;5083749;28;20565;-73
2023/03/28 07:23:31;;;;;;;1.10;1.10;;;;;;;6.76;82.47;99228.09;5086644;28;20244;-72
2023/03/28 07:25:58;;;;;;;1.30;1.30;;;;;;;6.92;83.28;99224.06;5087019;28;20198;-74
2023/03/28 07:28:25;;;;;;;1.00;1.00;;;;;;;7.08;80.42;99244.06;5088199;28;20194;-73
2023/03/28 07:30:55;;;;;;;1.27;1.27;;;;;;;7.12;79.25;99248.41;5088427;28;20209;-73
2023/03/28 07:33:22;;;;;;;0.80;0.80;;;;;;;6.96;78.35;99233.53;5089831;28;20206;-75
2023/03/28 07:35:49;;;;;;;0.87;0.87;;;;;;;7.09;78.88;99258.69;5075476;28;20198;-74
2023/03/28 07:38:16;;;;;;;0.80;0.80;;;;;;;7.40;77.78;99240.25;5090345;28;20653;-75
2023/03/28 07:40:43;;;;;;;0.80;0.80;;;;;;;7.37;78.30;99239.34;5090177;28;20237;-74
2023/03/28 07:43:10;;;;;;;0.80;0.80;;;;;;;7.47;76.44;99243.75;5090139;28;20637;-73
2023/03/28 07:45:36;;;;;;;0.90;0.90;;;;;;;7.71;76.61;99266.44;5090141;28;20651;-74
2023/03/28 07:48:05;;;;;;;0.93;0.93;;;;;;;7.98;74.10;99253.91;5090213;28;20664;-74
2023/03/28 07:50:32;;;;;;;0.90;0.90;;;;;;;8.13;73.05;99259.25;5090280;28;20288;-74
2023/03/28 07:52:59;;;;;;;0.90;0.90;;;;;;;8.15;71.64;99282.47;5078078;28;20588;-73
2023/03/28 07:55:27;;;;;;;1.23;1.23;;;;;;;8.26;71.44;99278.31;5025301;28;20740;-72
2023/03/28 07:57:54;;;;;;;4.33;1.00;;;;;;;8.23;69.81;99263.66;5094866;28;20210;-74
2023/03/28 08:00:22;;;;;;;8.70;7.40;;;;;;;8.43;69.85;99281.97;5042048;28;20255;-72
2023/03/28 08:02:49;;;;;;;0.90;0.90;;;;;;;8.23;69.39;99273.97;5094457;28;20246;-71
2023/03/28 08:05:18;;;;;;;0.90;0.90;;;;;;;8.33;67.38;99270.69;5078815;28;20227;-73
2023/03/28 08:07:45;;;;;;;0.80;0.80;;;;;;;8.40;67.39;99290.56;5081233;28;20205;-73
2023/03/28 08:10:13;;;;;;;0.90;0.90;;;;;;;7.73;67.71;99206.28;5094290;28;20206;-73
2023/03/28 08:12:40;;;;;;;0.90;0.90;;;;;;;8.39;67.20;99314.66;5094401;28;20198;-73
2023/03/28 08:15:08;;;;;;;0.90;0.90;;;;;;;8.31;67.85;99313.69;5093911;28;20206;-72
2023/03/28 08:17:35;;;;;;;0.80;0.80;;;;;;;8.11;67.87;99309.97;5089180;28;20205;-72
2023/03/28 08:20:03;;;;;;;1.20;1.20;;;;;;;8.02;68.57;99294.38;5091389;28;20244;-73
2023/03/28 08:22:31;;;;;;;0.70;0.70;;;;;;;8.27;67.21;99303.28;5091518;28;20198;-74
2023/03/28 08:24:58;;;;;;;0.80;0.80;;;;;;;8.46;67.27;99313.00;5093137;28;20708;-73
2023/03/28 08:27:25;;;;;;;0.90;0.90;;;;;;;8.50;65.48;99309.59;5093037;28;20628;-72
2023/03/28 08:29:52;;;;;;;0.80;0.80;;;;;;;8.61;65.86;99302.81;5057405;28;20648;-73
2023/03/28 08:32:19;;;;;;;0.98;0.98;;;;;;;8.48;64.16;99318.19;5093201;28;20285;-75
2023/03/28 08:34:45;;;;;;;1.03;1.03;;;;;;;8.37;64.35;99298.28;5093396;28;20198;-73
2023/03/28 08:37:12;;;;;;;2.38;1.45;;;;;;;8.43;64.44;99318.13;5093439;28;20205;-72
2023/03/28 08:39:41;;;;;;;0.90;0.90;;;;;;;8.53;65.07;99324.25;5093119;28;20198;-73
2023/03/28 08:42:26;;;;;;;1.20;1.20;;;;;;;8.45;64.97;99312.13;5093291;28;20261;-73
2023/03/28 08:45:32;;;;;;;0.90;0.90;;;;;;;8.73;65.07;99331.38;5092346;28;20245;-74
2023/03/28 08:48:11;;;;;;;0.90;0.90;;;;;;;8.77;67.35;99306.44;5011016;28;20211;-73
2023/03/28 08:50:43;;;;;;;0.70;0.70;;;;;;;8.71;64.26;99335.66;5011082;28;20700;-73
2023/03/28 08:53:19;;;;;;;0.90;0.90;;;;;;;8.45;64.27;99312.13;4998021;28;20232;-73
2023/03/28 08:55:48;;;;;;;1.00;1.00;;;;;;;8.64;64.60;99339.03;4998074;28;20660;-73
2023/03/28 08:58:20;;;;;;;0.82;0.82;;;;;;;9.26;75.78;99331.88;5010793;28;20243;-71
2023/03/28 09:00:48;;;;;;;0.70;0.70;;;;;;;9.26;67.25;99321.53;4997264;28;20696;-70
2023/03/28 09:03:18;;;;;;;0.70;0.70;;;;;;;8.87;62.82;99285.84;5010786;28;20703;-74
2023/03/28 09:05:48;;;;;;;1.27;1.27;;;;;;;8.77;62.14;99314.19;4996106;28;20244;-74
2023/03/28 09:08:46;;;;;;;0.90;0.90;;;;;;;9.22;62.11;99330.09;5010422;28;20680;-73
2023/03/28 09:11:26;;;;;;;1.23;1.23;;;;;;;9.12;60.88;99323.13;5010810;28;20193;-74
2023/03/28 09:14:21;;;;;;;12.45;1.00;;;;;;;8.99;60.52;99331.59;5010737;28;20566;-73
2023/03/28 09:17:01;;;;;;;1.55;1.55;;;;;;;9.25;60.88;99340.47;4933565;29;20211;-73
2023/03/28 09:19:43;;;;;;;0.70;0.70;;;;;;;9.24;60.66;99343.91;4933118;29;20679;-73
2023/03/28 09:22:24;;;;;;;0.80;0.80;;;;;;;9.06;60.99;99367.00;4935442;28;20206;-75
2023/03/28 09:25:02;;;;;;;0.93;0.93;;;;;;;9.21;60.61;99337.84;4979450;28;20723;-75
2023/03/28 09:27:34;;;;;;;1.63;1.52;;;;;;;9.07;59.60;99342.91;4990935;28;20245;-75
2023/03/28 09:30:16;;;;;;;1.43;1.43;;;;;;;9.21;58.74;99366.28;4991008;28;20201;-75
2023/03/28 09:32:43;;;;;;;0.90;0.90;;;;;;;9.22;58.87;99355.97;4977258;28;20662;-74
2023/03/28 09:35:16;;;;;;;0.82;0.82;;;;;;;9.30;57.49;99387.94;4990703;28;20677;-75
2023/03/28 09:37:46;;;;;;;1.15;1.15;;;;;;;9.53;56.57;99374.31;4990678;28;20296;-75
2023/03/28 09:40:19;;;;;;;0.70;0.70;;;;;;;9.13;56.89;99358.47;4951160;28;20209;-73
2023/03/28 09:42:56;;;;;;;1.00;1.00;;;;;;;9.31;55.91;99396.59;4988667;28;20201;-74
2023/03/28 09:45:36;;;;;;;1.00;1.00;;;;;;;9.18;55.57;99400.75;4990674;28;20296;-73
2023/03/28 09:48:04;;;;;;;0.75;0.75;;;;;;;9.13;54.66;99378.31;4990772;28;20212;-73
2023/03/28 09:50:31;;;;;;;0.90;0.90;;;;;;;9.14;54.58;99408.47;4993875;28;20213;-73
2023/03/28 09:52:59;;;;;;;0.90;0.90;;;;;;;9.11;54.38;99396.38;5003861;28;20298;-74
2023/03/28 09:55:28;;;;;;;1.00;1.00;;;;;;;9.26;54.35;99393.06;5090303;28;20198;-74
2023/03/28 09:58:02;;;;;;;0.80;0.80;;;;;;;9.02;54.84;99398.88;5092009;28;20205;-75
2023/03/28 10:00:29;;;;;;;0.73;0.73;;;;;;;8.97;54.52;99410.88;5092599;28;20202;-81
2023/03/28 10:02:56;;;;;;;0.83;0.83;;;;;;;9.09;54.60;99421.38;5092594;28;20206;-82
2023/03/28 10:05:36;;;;;;;0.70;0.70;;;;;;;9.36;54.74;99411.28;5092580;28;20222;-77
2023/03/28 10:08:05;;;;;;;1.08;1.08;;;;;;;9.48;53.57;99373.44;5092312;28;20224;-77
2023/03/28 10:10:32;;;;;;;0.77;0.77;;;;;;;9.65;53.22;99442.56;5092424;28;20206;-78
2023/03/28 10:13:03;;;;;;;1.92;1.83;;;;;;;9.50;52.61;99424.31;5092822;28;20212;-78
2023/03/28 10:15:39;;;;;;;0.70;0.70;;;;;;;9.26;52.83;99431.88;5088043;28;20211;-76
2023/03/28 10:18:06;;;;;;;0.50;0.50;;;;;;;9.25;53.25;99443.06;5085719;28;20270;-77
2023/03/28 10:20:36;;;;;;;0.90;0.90;;;;;;;9.48;52.77;99466.56;5100798;28;20199;-75
2023/03/28 10:23:04;;;;;;;0.70;0.70;;;;;;;9.66;52.93;99438.28;5093641;28;20205;-76
2023/03/28 10:25:37;;;;;;;0.90;0.90;;;;;;;9.79;52.75;99458.22;5097687;28;20253;-78
2023/03/28 10:28:08;;;;;;;1.00;1.00;;;;;;;9.74;52.46;99450.41;5107899;28;20205;-77
2023/03/28 10:30:36;;;;;;;4.25;1.50;;;;;;;9.67;52.46;99460.69;5093368;28;20195;-78
2023/03/28 10:33:22;;;;;;;1.38;1.35;;;;;;;9.69;52.17;99456.41;5077947;28;20579;-75
2023/03/28 10:35:57;;;;;;;1.02;1.02;;;;;;;9.63;51.68;99454.63;5091755;28;20194;-76
2023/03/28 10:38:25;;;;;;;1.00;1.00;;;;;;;9.89;51.10;99452.25;5080182;28;20633;-74
2023/03/28 10:40:58;;;;;;;0.80;0.80;;;;;;;9.91;51.13;99445.38;5088709;28;20198;-74
2023/03/28 10:43:35;;;;;;;0.90;0.90;;;;;;;10.16;51.08;99470.63;5091241;28;20205;-73
2023/03/28 10:46:05;;;;;;;0.80;0.80;;;;;;;9.92;50.03;99466.09;5090716;28;20236;-75
2023/03/28 10:48:35;;;;;;;0.80;0.80;;;;;;;9.84;50.03;99464.31;5091120;28;20202;-75
2023/03/28 10:51:07;;;;;;;0.70;0.70;;;;;;;9.85;50.16;99469.47;5076923;28;20669;-75
2023/03/28 10:54:02;;;;;;;1.10;1.10;;;;;;;9.98;49.60;99452.34;5054726;28;20206;-75
2023/03/28 10:56:33;;;;;;;0.85;0.85;;;;;;;10.20;49.18;99441.25;5091025;28;20202;-75
2023/03/28 10:59:17;;;;;;;0.90;0.90;;;;;;;10.28;49.04;99465.50;5090940;28;20228;-75
2023/03/28 11:01:57;;;;;;;0.70;0.70;;;;;;;9.86;48.99;99452.22;5055515;28;20205;-75
2023/03/28 11:04:40;;;;;;;0.90;0.90;;;;;;;9.84;49.17;99457.41;5070949;28;20206;-77
2023/03/28 11:07:12;;;;;;;0.73;0.73;;;;;;;9.81;49.02;99477.25;5071434;28;20291;-76
2023/03/28 11:09:45;;;;;;;0.98;0.98;;;;;;;9.37;49.22;99396.63;5035653;28;20199;-77
2023/03/28 11:12:25;;;;;;;0.73;0.73;;;;;;;9.85;48.38;99471.19;5070932;28;20203;-74
2023/03/28 11:15:06;;;;;;;0.70;0.70;;;;;;;9.89;48.13;99485.91;5070797;28;20198;-75
2023/03/28 11:17:45;;;;;;;1.25;1.25;;;;;;;9.92;48.18;99480.75;5070801;28;20205;-75
2023/03/28 11:20:33;;;;;;;2.28;0.90;;;;;;;9.95;47.41;99449.72;5070971;28;20198;-76
2023/03/28 11:23:13;;;;;;;0.70;0.70;;;;;;;10.30;47.13;99466.41;5070929;28;20199;-75
2023/03/28 11:25:50;;;;;;;0.80;0.80;;;;;;;10.57;46.13;99477.75;5070750;28;20234;-74
2023/03/28 11:28:24;;;;;;;0.70;0.70;;;;;;;10.34;45.75;99464.69;5070717;28;20201;-75
2023/03/28 11:30:56;;;;;;;0.73;0.73;;;;;;;10.51;45.26;99494.16;5076978;28;20201;-74
2023/03/28 11:33:29;;;;;;;27.30;4.03;;;;;;;10.54;45.73;99472.56;5077451;28;20194;-75
2023/03/28 11:36:01;;;;;;;1.02;1.02;;;;;;;10.62;45.56;99471.75;5077284;28;20251;-74
2023/03/28 11:38:33;;;;;;;0.70;0.70;;;;;;;10.87;44.84;99457.16;5077232;28;20743;-74
2023/03/28 11:41:07;;;;;;;0.70;0.70;;;;;;;10.73;45.55;99485.63;5077190;28;20210;-74
2023/03/28 11:43:40;;;;;;;0.73;0.73;;;;;;;10.60;45.65;99494.19;5077075;28;20195;-74
2023/03/28 11:46:13;;;;;;;0.80;0.80;;;;;;;10.28;44.89;99491.41;5077234;28;20230;-74
2023/03/28 11:48:47;;;;;;;1.02;1.02;;;;;;;10.70;45.00;99490.78;5041985;28;20202;-75
2023/03/28 11:51:18;;;;;;;0.60;0.60;;;;;;;10.85;45.02;99510.72;5077130;28;20202;-75
2023/03/28 11:53:51;;;;;;;0.90;0.90;;;;;;;10.65;44.29;99483.84;5077239;28;20207;-77